sensor_id;sensor_type;location;lat;lon;timestamp;P1;durP1;ratioP1;P2;durP2;ratioP2
19388;SDS011;9830;41.876;23.474;2022-07-31T00:00:38;1.20;;;1.10;;
19388;SDS011;9830;41.876;23.474;2022-07-31T00:03:04;0.60;;;0.60;;
19388;SDS011;9830;41.876;23.474;2022-07-31T00:05:30;1.43;;;1.33;;
19388;SDS011;9830;41.876;23.474;2022-07-31T00:07:56;1.10;;;1.10;;
19388;SDS011;9830;41.876;23.474;2022-07-31T00:10:22;0.73;;;0.73;;
19388;SDS011;9830;41.876;23.474;2022-07-31T00:12:48;1.03;;;0.87;;
19388;SDS011;9830;41.876;23.474;2022-07-31T00:15:14;1.50;;;0.80;;
19388;SDS011;9830;41.876;23.474;2022-07-31T00:17:40;0.80;;;0.60;;
19388;SDS011;9830;41.876;23.474;2022-07-31T00:20:07;0.60;;;0.60;;
19388;SDS011;9830;41.876;23.474;2022-07-31T00:22:37;0.53;;;0.23;;
19388;SDS011;9830;41.876;23.474;2022-07-31T00:25:03;1.43;;;0.53;;
19388;SDS011;9830;41.876;23.474;2022-07-31T00:27:29;0.57;;;0.57;;
19388;SDS011;9830;41.876;23.474;2022-07-31T00:29:55;0.50;;;0.50;;
19388;SDS011;9830;41.876;23.474;2022-07-31T00:32:21;0.30;;;0.30;;
19388;SDS011;9830;41.876;23.474;2022-07-31T00:34:46;1.17;;;0.93;;
19388;SDS011;9830;41.876;23.474;2022-07-31T00:37:12;1.40;;;1.30;;
19388;SDS011;9830;41.876;23.474;2022-07-31T00:39:38;4.00;;;0.57;;
19388;SDS011;9830;41.876;23.474;2022-07-31T00:42:04;1.73;;;1.17;;
19388;SDS011;9830;41.876;23.474;2022-07-31T00:44:30;0.50;;;0.50;;
19388;SDS011;9830;41.876;23.474;2022-07-31T00:46:55;0.57;;;0.57;;
19388;SDS011;9830;41.876;23.474;2022-07-31T00:49:21;0.80;;;0.60;;
19388;SDS011;9830;41.876;23.474;2022-07-31T00:51:47;0.57;;;0.57;;
19388;SDS011;9830;41.876;23.474;2022-07-31T00:54:12;1.90;;;1.00;;
19388;SDS011;9830;41.876;23.474;2022-07-31T00:56:39;1.13;;;0.87;;
19388;SDS011;9830;41.876;23.474;2022-07-31T00:59:04;0.53;;;0.53;;
19388;SDS011;9830;41.876;23.474;2022-07-31T01:01:30;0.20;;;0.20;;
19388;SDS011;9830;41.876;23.474;2022-07-31T01:03:56;1.10;;;0.80;;
19388;SDS011;9830;41.876;23.474;2022-07-31T01:06:22;0.93;;;0.87;;
19388;SDS011;9830;41.876;23.474;2022-07-31T01:08:48;0.97;;;0.60;;
19388;SDS011;9830;41.876;23.474;2022-07-31T01:13:58;0.27;;;0.23;;
19388;SDS011;9830;41.876;23.474;2022-07-31T01:16:27;0.97;;;0.77;;
19388;SDS011;9830;41.876;23.474;2022-07-31T01:18:58;0.83;;;0.83;;
19388;SDS011;9830;41.876;23.474;2022-07-31T01:21:35;0.53;;;0.53;;
19388;SDS011;9830;41.876;23.474;2022-07-31T01:24:22;0.73;;;0.73;;
19388;SDS011;9830;41.876;23.474;2022-07-31T01:26:59;0.83;;;0.60;;
19388;SDS011;9830;41.876;23.474;2022-07-31T01:29:36;0.70;;;0.70;;
19388;SDS011;9830;41.876;23.474;2022-07-31T01:32:20;2.73;;;0.60;;
19388;SDS011;9830;41.876;23.474;2022-07-31T01:34:54;0.93;;;0.83;;
19388;SDS011;9830;41.876;23.474;2022-07-31T01:37:27;1.40;;;1.03;;
19388;SDS011;9830;41.876;23.474;2022-07-31T01:40:14;0.80;;;0.80;;
19388;SDS011;9830;41.876;23.474;2022-07-31T01:42:46;1.50;;;1.13;;
19388;SDS011;9830;41.876;23.474;2022-07-31T01:45:19;0.57;;;0.57;;
19388;SDS011;9830;41.876;23.474;2022-07-31T01:47:46;0.50;;;0.50;;
19388;SDS011;9830;41.876;23.474;2022-07-31T01:50:13;0.50;;;0.50;;
19388;SDS011;9830;41.876;23.474;2022-07-31T01:52:40;0.97;;;0.53;;
19388;SDS011;9830;41.876;23.474;2022-07-31T01:55:08;1.33;;;0.73;;
19388;SDS011;9830;41.876;23.474;2022-07-31T01:57:35;0.57;;;0.57;;
19388;SDS011;9830;41.876;23.474;2022-07-31T02:00:04;0.63;;;0.63;;
19388;SDS011;9830;41.876;23.474;2022-07-31T02:02:31;2.20;;;1.47;;
19388;SDS011;9830;41.876;23.474;2022-07-31T02:04:59;1.23;;;0.87;;
19388;SDS011;9830;41.876;23.474;2022-07-31T02:07:26;0.83;;;0.83;;
19388;SDS011;9830;41.876;23.474;2022-07-31T02:09:53;0.70;;;0.70;;
19388;SDS011;9830;41.876;23.474;2022-07-31T02:12:20;0.87;;;0.87;;
19388;SDS011;9830;41.876;23.474;2022-07-31T02:14:46;1.73;;;1.63;;
19388;SDS011;9830;41.876;23.474;2022-07-31T02:17:14;3.33;;;1.07;;
19388;SDS011;9830;41.876;23.474;2022-07-31T02:19:41;5.63;;;1.93;;
19388;SDS011;9830;41.876;23.474;2022-07-31T02:22:09;0.97;;;0.97;;
19388;SDS011;9830;41.876;23.474;2022-07-31T02:24:34;1.53;;;1.43;;
19388;SDS011;9830;41.876;23.474;2022-07-31T02:27:00;1.60;;;1.50;;
19388;SDS011;9830;41.876;23.474;2022-07-31T02:29:27;2.37;;;1.77;;
19388;SDS011;9830;41.876;23.474;2022-07-31T02:31:57;2.37;;;0.87;;
19388;SDS011;9830;41.876;23.474;2022-07-31T02:34:24;1.47;;;1.37;;
19388;SDS011;9830;41.876;23.474;2022-07-31T02:36:52;1.47;;;1.47;;
19388;SDS011;9830;41.876;23.474;2022-07-31T02:39:19;0.50;;;0.50;;
19388;SDS011;9830;41.876;23.474;2022-07-31T02:41:46;1.33;;;0.63;;
19388;SDS011;9830;41.876;23.474;2022-07-31T02:44:13;1.47;;;1.40;;
19388;SDS011;9830;41.876;23.474;2022-07-31T02:46:42;1.63;;;1.53;;
19388;SDS011;9830;41.876;23.474;2022-07-31T02:49:09;1.30;;;1.20;;
19388;SDS011;9830;41.876;23.474;2022-07-31T02:51:38;2.73;;;1.70;;
19388;SDS011;9830;41.876;23.474;2022-07-31T02:54:04;2.60;;;2.03;;
19388;SDS011;9830;41.876;23.474;2022-07-31T02:56:30;1.33;;;1.27;;
19388;SDS011;9830;41.876;23.474;2022-07-31T02:58:57;5.30;;;2.50;;
19388;SDS011;9830;41.876;23.474;2022-07-31T03:01:23;0.90;;;0.90;;
19388;SDS011;9830;41.876;23.474;2022-07-31T03:03:49;2.47;;;1.93;;
19388;SDS011;9830;41.876;23.474;2022-07-31T03:06:15;1.77;;;1.73;;
19388;SDS011;9830;41.876;23.474;2022-07-31T03:08:41;2.67;;;2.10;;
19388;SDS011;9830;41.876;23.474;2022-07-31T03:11:07;1.50;;;1.40;;
19388;SDS011;9830;41.876;23.474;2022-07-31T03:13:34;1.93;;;1.80;;
19388;SDS011;9830;41.876;23.474;2022-07-31T03:16:01;4.53;;;3.07;;
19388;SDS011;9830;41.876;23.474;2022-07-31T03:18:29;5.10;;;1.73;;
19388;SDS011;9830;41.876;23.474;2022-07-31T03:20:56;2.63;;;2.37;;
19388;SDS011;9830;41.876;23.474;2022-07-31T03:23:22;0.90;;;0.90;;
19388;SDS011;9830;41.876;23.474;2022-07-31T03:25:50;3.90;;;1.63;;
19388;SDS011;9830;41.876;23.474;2022-07-31T03:28:18;3.03;;;2.40;;
19388;SDS011;9830;41.876;23.474;2022-07-31T03:30:45;1.17;;;1.10;;
19388;SDS011;9830;41.876;23.474;2022-07-31T03:33:14;1.57;;;1.47;;
19388;SDS011;9830;41.876;23.474;2022-07-31T03:35:39;1.80;;;1.70;;
19388;SDS011;9830;41.876;23.474;2022-07-31T03:38:05;2.13;;;1.57;;
19388;SDS011;9830;41.876;23.474;2022-07-31T03:40:31;1.43;;;1.33;;
19388;SDS011;9830;41.876;23.474;2022-07-31T03:42:57;1.23;;;1.23;;
19388;SDS011;9830;41.876;23.474;2022-07-31T03:45:24;1.13;;;1.03;;
19388;SDS011;9830;41.876;23.474;2022-07-31T03:47:51;1.97;;;1.87;;
19388;SDS011;9830;41.876;23.474;2022-07-31T03:50:18;0.87;;;0.87;;
19388;SDS011;9830;41.876;23.474;2022-07-31T03:52:46;2.80;;;2.03;;
19388;SDS011;9830;41.876;23.474;2022-07-31T03:55:13;1.30;;;1.20;;
19388;SDS011;9830;41.876;23.474;2022-07-31T03:57:39;2.13;;;0.90;;
19388;SDS011;9830;41.876;23.474;2022-07-31T04:00:07;1.23;;;1.13;;
19388;SDS011;9830;41.876;23.474;2022-07-31T04:02:33;1.43;;;1.43;;
19388;SDS011;9830;41.876;23.474;2022-07-31T04:04:59;1.43;;;1.33;;
19388;SDS011;9830;41.876;23.474;2022-07-31T04:07:25;1.27;;;1.17;;
19388;SDS011;9830;41.876;23.474;2022-07-31T04:09:51;0.93;;;0.93;;
19388;SDS011;9830;41.876;23.474;2022-07-31T04:12:17;0.77;;;0.77;;
19388;SDS011;9830;41.876;23.474;2022-07-31T04:14:43;4.30;;;2.57;;
19388;SDS011;9830;41.876;23.474;2022-07-31T04:17:09;0.77;;;0.77;;
19388;SDS011;9830;41.876;23.474;2022-07-31T04:19:34;1.37;;;1.27;;
19388;SDS011;9830;41.876;23.474;2022-07-31T04:22:00;1.50;;;1.43;;
19388;SDS011;9830;41.876;23.474;2022-07-31T04:24:26;1.33;;;1.27;;
19388;SDS011;9830;41.876;23.474;2022-07-31T04:26:55;1.40;;;1.30;;
19388;SDS011;9830;41.876;23.474;2022-07-31T04:29:22;1.70;;;1.60;;
19388;SDS011;9830;41.876;23.474;2022-07-31T04:31:48;1.80;;;1.50;;
19388;SDS011;9830;41.876;23.474;2022-07-31T04:34:14;1.23;;;1.13;;
19388;SDS011;9830;41.876;23.474;2022-07-31T04:36:40;1.90;;;1.80;;
19388;SDS011;9830;41.876;23.474;2022-07-31T04:39:06;2.07;;;1.93;;
19388;SDS011;9830;41.876;23.474;2022-07-31T04:41:32;4.20;;;2.50;;
19388;SDS011;9830;41.876;23.474;2022-07-31T04:43:57;2.20;;;2.10;;
19388;SDS011;9830;41.876;23.474;2022-07-31T04:46:23;7.53;;;3.07;;
19388;SDS011;9830;41.876;23.474;2022-07-31T04:48:49;4.63;;;1.77;;
19388;SDS011;9830;41.876;23.474;2022-07-31T04:51:16;2.30;;;1.93;;
19388;SDS011;9830;41.876;23.474;2022-07-31T04:53:43;2.73;;;2.30;;
19388;SDS011;9830;41.876;23.474;2022-07-31T04:56:14;4.10;;;1.80;;
19388;SDS011;9830;41.876;23.474;2022-07-31T04:59:00;4.17;;;2.67;;
19388;SDS011;9830;41.876;23.474;2022-07-31T05:01:28;2.10;;;1.80;;
19388;SDS011;9830;41.876;23.474;2022-07-31T05:03:54;2.40;;;2.30;;
19388;SDS011;9830;41.876;23.474;2022-07-31T05:06:20;1.93;;;1.80;;
19388;SDS011;9830;41.876;23.474;2022-07-31T05:08:46;5.80;;;2.80;;
19388;SDS011;9830;41.876;23.474;2022-07-31T05:11:12;1.30;;;1.30;;
19388;SDS011;9830;41.876;23.474;2022-07-31T05:13:51;1.73;;;1.57;;
19388;SDS011;9830;41.876;23.474;2022-07-31T05:16:18;1.70;;;1.60;;
19388;SDS011;9830;41.876;23.474;2022-07-31T05:18:45;2.20;;;2.10;;
19388;SDS011;9830;41.876;23.474;2022-07-31T05:21:12;1.97;;;1.87;;
19388;SDS011;9830;41.876;23.474;2022-07-31T05:23:42;2.13;;;2.03;;
19388;SDS011;9830;41.876;23.474;2022-07-31T05:26:09;3.87;;;2.53;;
19388;SDS011;9830;41.876;23.474;2022-07-31T05:28:35;2.00;;;1.80;;
19388;SDS011;9830;41.876;23.474;2022-07-31T05:31:01;4.43;;;2.10;;
19388;SDS011;9830;41.876;23.474;2022-07-31T05:33:27;1.87;;;1.77;;
19388;SDS011;9830;41.876;23.474;2022-07-31T05:35:54;1.30;;;1.30;;
19388;SDS011;9830;41.876;23.474;2022-07-31T05:38:20;1.33;;;1.33;;
19388;SDS011;9830;41.876;23.474;2022-07-31T05:40:46;1.43;;;1.20;;
19388;SDS011;9830;41.876;23.474;2022-07-31T05:43:11;5.60;;;1.77;;
19388;SDS011;9830;41.876;23.474;2022-07-31T05:45:37;3.53;;;1.83;;
19388;SDS011;9830;41.876;23.474;2022-07-31T05:48:03;2.43;;;2.10;;
19388;SDS011;9830;41.876;23.474;2022-07-31T05:50:29;1.63;;;1.53;;
19388;SDS011;9830;41.876;23.474;2022-07-31T05:52:55;0.87;;;0.87;;
19388;SDS011;9830;41.876;23.474;2022-07-31T05:55:21;2.43;;;1.83;;
19388;SDS011;9830;41.876;23.474;2022-07-31T05:57:47;2.17;;;2.07;;
19388;SDS011;9830;41.876;23.474;2022-07-31T06:00:13;1.00;;;1.00;;
19388;SDS011;9830;41.876;23.474;2022-07-31T06:02:40;2.13;;;2.03;;
19388;SDS011;9830;41.876;23.474;2022-07-31T06:05:06;1.73;;;1.63;;
19388;SDS011;9830;41.876;23.474;2022-07-31T06:07:32;2.17;;;1.97;;
19388;SDS011;9830;41.876;23.474;2022-07-31T06:09:58;2.73;;;2.20;;
19388;SDS011;9830;41.876;23.474;2022-07-31T06:12:24;1.70;;;1.60;;
19388;SDS011;9830;41.876;23.474;2022-07-31T06:14:50;1.60;;;1.50;;
19388;SDS011;9830;41.876;23.474;2022-07-31T06:17:16;1.47;;;1.37;;
19388;SDS011;9830;41.876;23.474;2022-07-31T06:19:41;1.27;;;1.27;;
19388;SDS011;9830;41.876;23.474;2022-07-31T06:22:07;0.80;;;0.80;;
19388;SDS011;9830;41.876;23.474;2022-07-31T06:24:33;1.57;;;1.47;;
19388;SDS011;9830;41.876;23.474;2022-07-31T06:26:59;1.50;;;1.40;;
19388;SDS011;9830;41.876;23.474;2022-07-31T06:29:25;1.77;;;1.67;;
19388;SDS011;9830;41.876;23.474;2022-07-31T06:31:55;5.18;;;1.92;;
19388;SDS011;9830;41.876;23.474;2022-07-31T06:34:21;1.17;;;1.15;;
19388;SDS011;9830;41.876;23.474;2022-07-31T06:36:48;6.07;;;2.03;;
19388;SDS011;9830;41.876;23.474;2022-07-31T06:39:14;2.45;;;1.83;;
19388;SDS011;9830;41.876;23.474;2022-07-31T06:41:40;1.52;;;1.40;;
19388;SDS011;9830;41.876;23.474;2022-07-31T06:44:13;1.85;;;1.70;;
19388;SDS011;9830;41.876;23.474;2022-07-31T06:46:43;2.15;;;1.95;;
19388;SDS011;9830;41.876;23.474;2022-07-31T06:49:12;2.70;;;1.52;;
19388;SDS011;9830;41.876;23.474;2022-07-31T06:51:38;2.20;;;1.83;;
19388;SDS011;9830;41.876;23.474;2022-07-31T06:54:04;1.65;;;1.55;;
19388;SDS011;9830;41.876;23.474;2022-07-31T06:56:32;1.52;;;1.45;;
19388;SDS011;9830;41.876;23.474;2022-07-31T06:58:59;1.08;;;1.00;;
19388;SDS011;9830;41.876;23.474;2022-07-31T07:01:26;1.63;;;1.52;;
19388;SDS011;9830;41.876;23.474;2022-07-31T07:03:52;4.85;;;1.20;;
19388;SDS011;9830;41.876;23.474;2022-07-31T07:06:17;1.20;;;1.20;;
19388;SDS011;9830;41.876;23.474;2022-07-31T07:08:43;0.63;;;0.63;;
19388;SDS011;9830;41.876;23.474;2022-07-31T07:11:09;1.60;;;1.50;;
19388;SDS011;9830;41.876;23.474;2022-07-31T07:13:35;2.63;;;1.52;;
19388;SDS011;9830;41.876;23.474;2022-07-31T07:16:00;1.80;;;1.70;;
19388;SDS011;9830;41.876;23.474;2022-07-31T07:18:26;1.42;;;1.33;;
19388;SDS011;9830;41.876;23.474;2022-07-31T07:20:52;2.30;;;1.90;;
19388;SDS011;9830;41.876;23.474;2022-07-31T07:23:18;1.52;;;1.52;;
19388;SDS011;9830;41.876;23.474;2022-07-31T07:25:44;1.10;;;1.10;;
19388;SDS011;9830;41.876;23.474;2022-07-31T07:28:10;1.60;;;1.50;;
19388;SDS011;9830;41.876;23.474;2022-07-31T07:30:36;2.33;;;2.13;;
19388;SDS011;9830;41.876;23.474;2022-07-31T07:33:01;1.70;;;1.60;;
19388;SDS011;9830;41.876;23.474;2022-07-31T07:35:29;1.50;;;1.40;;
19388;SDS011;9830;41.876;23.474;2022-07-31T07:37:55;3.13;;;1.92;;
19388;SDS011;9830;41.876;23.474;2022-07-31T07:40:21;1.10;;;1.10;;
19388;SDS011;9830;41.876;23.474;2022-07-31T07:42:47;1.95;;;1.70;;
19388;SDS011;9830;41.876;23.474;2022-07-31T07:45:13;1.52;;;1.42;;
19388;SDS011;9830;41.876;23.474;2022-07-31T07:47:39;1.20;;;1.20;;
19388;SDS011;9830;41.876;23.474;2022-07-31T07:50:06;1.55;;;1.45;;
19388;SDS011;9830;41.876;23.474;2022-07-31T07:52:32;1.42;;;1.25;;
19388;SDS011;9830;41.876;23.474;2022-07-31T07:55:00;1.38;;;1.38;;
19388;SDS011;9830;41.876;23.474;2022-07-31T07:57:26;0.82;;;0.82;;
19388;SDS011;9830;41.876;23.474;2022-07-31T07:59:51;0.60;;;0.60;;
19388;SDS011;9830;41.876;23.474;2022-07-31T08:02:17;2.30;;;1.42;;
19388;SDS011;9830;41.876;23.474;2022-07-31T08:04:43;1.80;;;1.70;;
19388;SDS011;9830;41.876;23.474;2022-07-31T08:07:09;1.20;;;1.20;;
19388;SDS011;9830;41.876;23.474;2022-07-31T08:09:35;0.77;;;0.77;;
19388;SDS011;9830;41.876;23.474;2022-07-31T08:12:01;1.38;;;1.38;;
19388;SDS011;9830;41.876;23.474;2022-07-31T08:14:28;1.00;;;1.00;;
19388;SDS011;9830;41.876;23.474;2022-07-31T08:16:54;0.40;;;0.40;;
19388;SDS011;9830;41.876;23.474;2022-07-31T08:19:21;0.68;;;0.68;;
19388;SDS011;9830;41.876;23.474;2022-07-31T08:21:47;1.30;;;1.20;;
19388;SDS011;9830;41.876;23.474;2022-07-31T08:24:13;0.77;;;0.77;;
19388;SDS011;9830;41.876;23.474;2022-07-31T08:26:40;1.25;;;1.25;;
19388;SDS011;9830;41.876;23.474;2022-07-31T08:29:25;1.60;;;1.50;;
19388;SDS011;9830;41.876;23.474;2022-07-31T08:31:51;1.02;;;0.98;;
19388;SDS011;9830;41.876;23.474;2022-07-31T08:34:17;0.52;;;0.52;;
19388;SDS011;9830;41.876;23.474;2022-07-31T08:36:43;1.92;;;1.83;;
19388;SDS011;9830;41.876;23.474;2022-07-31T08:39:09;2.78;;;0.93;;
19388;SDS011;9830;41.876;23.474;2022-07-31T08:41:37;1.15;;;0.88;;
19388;SDS011;9830;41.876;23.474;2022-07-31T08:44:05;0.50;;;0.50;;
19388;SDS011;9830;41.876;23.474;2022-07-31T08:46:31;1.52;;;1.42;;
19388;SDS011;9830;41.876;23.474;2022-07-31T08:49:00;1.58;;;1.48;;
19388;SDS011;9830;41.876;23.474;2022-07-31T08:51:27;1.50;;;1.40;;
19388;SDS011;9830;41.876;23.474;2022-07-31T08:53:58;1.45;;;1.38;;
19388;SDS011;9830;41.876;23.474;2022-07-31T08:56:27;1.70;;;1.60;;
19388;SDS011;9830;41.876;23.474;2022-07-31T08:58:56;2.53;;;2.42;;
19388;SDS011;9830;41.876;23.474;2022-07-31T09:01:22;1.80;;;1.70;;
19388;SDS011;9830;41.876;23.474;2022-07-31T09:03:47;2.80;;;2.60;;
19388;SDS011;9830;41.876;23.474;2022-07-31T09:06:13;2.95;;;2.75;;
19388;SDS011;9830;41.876;23.474;2022-07-31T09:08:39;6.35;;;2.53;;
19388;SDS011;9830;41.876;23.474;2022-07-31T09:11:06;3.20;;;2.95;;
19388;SDS011;9830;41.876;23.474;2022-07-31T09:13:33;2.70;;;2.50;;
19388;SDS011;9830;41.876;23.474;2022-07-31T09:15:59;3.05;;;2.35;;
19388;SDS011;9830;41.876;23.474;2022-07-31T09:18:25;4.80;;;2.28;;
19388;SDS011;9830;41.876;23.474;2022-07-31T09:23:21;2.20;;;2.10;;
19388;SDS011;9830;41.876;23.474;2022-07-31T09:25:58;2.35;;;2.15;;
19388;SDS011;9830;41.876;23.474;2022-07-31T09:31:02;2.67;;;2.58;;
19388;SDS011;9830;41.876;23.474;2022-07-31T09:33:28;2.92;;;2.67;;
19388;SDS011;9830;41.876;23.474;2022-07-31T09:35:55;2.63;;;2.33;;
19388;SDS011;9830;41.876;23.474;2022-07-31T09:38:28;11.95;;;3.58;;
19388;SDS011;9830;41.876;23.474;2022-07-31T09:40:55;2.35;;;2.25;;
19388;SDS011;9830;41.876;23.474;2022-07-31T09:43:21;3.03;;;2.83;;
19388;SDS011;9830;41.876;23.474;2022-07-31T09:46:10;2.10;;;2.00;;
19388;SDS011;9830;41.876;23.474;2022-07-31T09:48:36;2.65;;;2.35;;
19388;SDS011;9830;41.876;23.474;2022-07-31T09:51:05;2.90;;;2.70;;
19388;SDS011;9830;41.876;23.474;2022-07-31T09:53:39;3.17;;;2.95;;
19388;SDS011;9830;41.876;23.474;2022-07-31T09:56:14;3.35;;;2.85;;
19388;SDS011;9830;41.876;23.474;2022-07-31T09:58:42;2.95;;;2.72;;
19388;SDS011;9830;41.876;23.474;2022-07-31T10:01:08;5.72;;;3.92;;
19388;SDS011;9830;41.876;23.474;2022-07-31T10:03:37;2.85;;;2.53;;
19388;SDS011;9830;41.876;23.474;2022-07-31T10:06:05;8.35;;;2.92;;
19388;SDS011;9830;41.876;23.474;2022-07-31T10:08:36;3.45;;;3.15;;
19388;SDS011;9830;41.876;23.474;2022-07-31T10:11:03;2.90;;;2.70;;
19388;SDS011;9830;41.876;23.474;2022-07-31T10:13:32;3.08;;;2.85;;
19388;SDS011;9830;41.876;23.474;2022-07-31T10:16:01;3.05;;;2.80;;
19388;SDS011;9830;41.876;23.474;2022-07-31T10:18:28;6.68;;;4.43;;
19388;SDS011;9830;41.876;23.474;2022-07-31T10:20:58;9.98;;;3.22;;
19388;SDS011;9830;41.876;23.474;2022-07-31T10:23:26;3.67;;;3.45;;
19388;SDS011;9830;41.876;23.474;2022-07-31T10:25:56;6.05;;;3.53;;
19388;SDS011;9830;41.876;23.474;2022-07-31T10:28:22;5.53;;;3.47;;
19388;SDS011;9830;41.876;23.474;2022-07-31T10:30:49;3.97;;;3.67;;
19388;SDS011;9830;41.876;23.474;2022-07-31T10:33:15;2.95;;;2.75;;
19388;SDS011;9830;41.876;23.474;2022-07-31T10:35:46;5.22;;;3.72;;
19388;SDS011;9830;41.876;23.474;2022-07-31T10:38:30;4.45;;;3.53;;
19388;SDS011;9830;41.876;23.474;2022-07-31T10:43:45;3.30;;;2.63;;
19388;SDS011;9830;41.876;23.474;2022-07-31T10:46:51;4.45;;;2.75;;
19388;SDS011;9830;41.876;23.474;2022-07-31T10:49:10;3.50;;;3.30;;
19388;SDS011;9830;41.876;23.474;2022-07-31T10:51:46;5.53;;;3.70;;
19388;SDS011;9830;41.876;23.474;2022-07-31T10:54:12;2.53;;;2.38;;
19388;SDS011;9830;41.876;23.474;2022-07-31T10:56:43;3.42;;;3.13;;
19388;SDS011;9830;41.876;23.474;2022-07-31T10:59:10;3.92;;;3.63;;
19388;SDS011;9830;41.876;23.474;2022-07-31T11:01:46;5.88;;;2.67;;
19388;SDS011;9830;41.876;23.474;2022-07-31T11:04:25;3.05;;;2.85;;
19388;SDS011;9830;41.876;23.474;2022-07-31T11:06:56;4.95;;;3.92;;
19388;SDS011;9830;41.876;23.474;2022-07-31T11:09:23;4.65;;;3.92;;
19388;SDS011;9830;41.876;23.474;2022-07-31T11:11:50;4.47;;;3.03;;
19388;SDS011;9830;41.876;23.474;2022-07-31T11:14:17;4.97;;;3.28;;
19388;SDS011;9830;41.876;23.474;2022-07-31T11:16:54;2.72;;;2.53;;
19388;SDS011;9830;41.876;23.474;2022-07-31T11:19:20;2.88;;;2.67;;
19388;SDS011;9830;41.876;23.474;2022-07-31T11:21:46;2.97;;;2.72;;
19388;SDS011;9830;41.876;23.474;2022-07-31T11:26:54;2.85;;;2.33;;
19388;SDS011;9830;41.876;23.474;2022-07-31T11:29:28;7.38;;;2.80;;
19388;SDS011;9830;41.876;23.474;2022-07-31T11:32:14;13.30;;;4.15;;
19388;SDS011;9830;41.876;23.474;2022-07-31T11:34:49;3.13;;;2.83;;
19388;SDS011;9830;41.876;23.474;2022-07-31T11:37:20;3.63;;;3.28;;
19388;SDS011;9830;41.876;23.474;2022-07-31T11:39:51;2.72;;;2.53;;
19388;SDS011;9830;41.876;23.474;2022-07-31T11:42:18;3.50;;;2.72;;
19388;SDS011;9830;41.876;23.474;2022-07-31T11:44:45;3.40;;;3.10;;
19388;SDS011;9830;41.876;23.474;2022-07-31T11:47:11;2.88;;;2.67;;
19388;SDS011;9830;41.876;23.474;2022-07-31T11:49:37;2.58;;;2.38;;
19388;SDS011;9830;41.876;23.474;2022-07-31T11:52:04;3.20;;;2.97;;
19388;SDS011;9830;41.876;23.474;2022-07-31T11:54:34;2.22;;;2.10;;
19388;SDS011;9830;41.876;23.474;2022-07-31T11:57:00;2.13;;;2.03;;
19388;SDS011;9830;41.876;23.474;2022-07-31T11:59:33;2.63;;;2.42;;
19388;SDS011;9830;41.876;23.474;2022-07-31T12:04:32;5.63;;;3.35;;
19388;SDS011;9830;41.876;23.474;2022-07-31T12:07:00;2.50;;;2.40;;
19388;SDS011;9830;41.876;23.474;2022-07-31T12:09:26;4.32;;;3.03;;
19388;SDS011;9830;41.876;23.474;2022-07-31T12:11:53;1.83;;;1.73;;
19388;SDS011;9830;41.876;23.474;2022-07-31T12:14:32;2.08;;;1.98;;
19388;SDS011;9830;41.876;23.474;2022-07-31T12:16:59;2.90;;;2.08;;
19388;SDS011;9830;41.876;23.474;2022-07-31T12:19:26;2.47;;;2.17;;
19388;SDS011;9830;41.876;23.474;2022-07-31T12:22:14;2.92;;;2.72;;
19388;SDS011;9830;41.876;23.474;2022-07-31T12:24:41;3.50;;;2.80;;
19388;SDS011;9830;41.876;23.474;2022-07-31T12:27:08;3.35;;;3.05;;
19388;SDS011;9830;41.876;23.474;2022-07-31T12:29:39;3.33;;;2.30;;
19388;SDS011;9830;41.876;23.474;2022-07-31T12:32:05;4.47;;;2.50;;
19388;SDS011;9830;41.876;23.474;2022-07-31T12:37:01;1.50;;;1.27;;
19388;SDS011;9830;41.876;23.474;2022-07-31T12:39:36;3.45;;;3.15;;
19388;SDS011;9830;41.876;23.474;2022-07-31T12:42:31;2.60;;;2.30;;
19388;SDS011;9830;41.876;23.474;2022-07-31T12:44:59;10.68;;;1.45;;
19388;SDS011;9830;41.876;23.474;2022-07-31T12:47:27;1.92;;;1.83;;
19388;SDS011;9830;41.876;23.474;2022-07-31T12:49:57;2.33;;;2.13;;
19388;SDS011;9830;41.876;23.474;2022-07-31T12:52:27;1.85;;;1.75;;
19388;SDS011;9830;41.876;23.474;2022-07-31T12:54:56;1.83;;;1.73;;
19388;SDS011;9830;41.876;23.474;2022-07-31T12:57:22;2.13;;;1.92;;
19388;SDS011;9830;41.876;23.474;2022-07-31T12:59:48;1.90;;;1.80;;
19388;SDS011;9830;41.876;23.474;2022-07-31T13:02:14;2.03;;;1.85;;
19388;SDS011;9830;41.876;23.474;2022-07-31T13:04:41;1.70;;;1.60;;
19388;SDS011;9830;41.876;23.474;2022-07-31T13:07:07;2.17;;;1.50;;
19388;SDS011;9830;41.876;23.474;2022-07-31T13:09:33;4.22;;;2.03;;
19388;SDS011;9830;41.876;23.474;2022-07-31T13:11:58;3.63;;;3.00;;
19388;SDS011;9830;41.876;23.474;2022-07-31T13:14:24;2.25;;;2.05;;
19388;SDS011;9830;41.876;23.474;2022-07-31T13:16:50;2.30;;;2.20;;
19388;SDS011;9830;41.876;23.474;2022-07-31T13:19:19;1.45;;;1.35;;
19388;SDS011;9830;41.876;23.474;2022-07-31T13:21:45;1.40;;;1.27;;
19388;SDS011;9830;41.876;23.474;2022-07-31T13:24:11;2.00;;;1.90;;
19388;SDS011;9830;41.876;23.474;2022-07-31T13:26:38;4.47;;;2.47;;
19388;SDS011;9830;41.876;23.474;2022-07-31T13:29:04;1.70;;;1.60;;
19388;SDS011;9830;41.876;23.474;2022-07-31T13:31:30;1.77;;;1.52;;
19388;SDS011;9830;41.876;23.474;2022-07-31T13:33:56;2.50;;;2.30;;
19388;SDS011;9830;41.876;23.474;2022-07-31T13:36:22;1.35;;;1.35;;
19388;SDS011;9830;41.876;23.474;2022-07-31T13:38:49;3.75;;;1.63;;
19388;SDS011;9830;41.876;23.474;2022-07-31T13:41:15;2.30;;;1.65;;
19388;SDS011;9830;41.876;23.474;2022-07-31T13:43:52;1.77;;;1.67;;
19388;SDS011;9830;41.876;23.474;2022-07-31T13:46:19;1.33;;;1.27;;
19388;SDS011;9830;41.876;23.474;2022-07-31T13:48:46;1.80;;;1.70;;
19388;SDS011;9830;41.876;23.474;2022-07-31T13:51:12;4.20;;;1.17;;
19388;SDS011;9830;41.876;23.474;2022-07-31T13:53:38;2.28;;;1.98;;
19388;SDS011;9830;41.876;23.474;2022-07-31T13:56:04;2.10;;;1.90;;
19388;SDS011;9830;41.876;23.474;2022-07-31T13:58:30;2.38;;;1.55;;
19388;SDS011;9830;41.876;23.474;2022-07-31T14:00:56;0.68;;;0.68;;
19388;SDS011;9830;41.876;23.474;2022-07-31T14:03:23;0.88;;;0.88;;
19388;SDS011;9830;41.876;23.474;2022-07-31T14:05:49;2.35;;;2.15;;
19388;SDS011;9830;41.876;23.474;2022-07-31T14:08:16;1.77;;;1.48;;
19388;SDS011;9830;41.876;23.474;2022-07-31T14:10:43;0.95;;;0.95;;
19388;SDS011;9830;41.876;23.474;2022-07-31T14:13:09;1.92;;;1.67;;
19388;SDS011;9830;41.876;23.474;2022-07-31T14:15:35;0.95;;;0.95;;
19388;SDS011;9830;41.876;23.474;2022-07-31T14:18:01;6.13;;;2.15;;
19388;SDS011;9830;41.876;23.474;2022-07-31T14:20:27;8.50;;;2.42;;
19388;SDS011;9830;41.876;23.474;2022-07-31T14:22:54;1.80;;;1.70;;
19388;SDS011;9830;41.876;23.474;2022-07-31T14:25:20;0.63;;;0.63;;
19388;SDS011;9830;41.876;23.474;2022-07-31T14:27:45;1.88;;;1.75;;
19388;SDS011;9830;41.876;23.474;2022-07-31T14:30:11;1.50;;;1.30;;
19388;SDS011;9830;41.876;23.474;2022-07-31T14:32:39;1.20;;;1.20;;
19388;SDS011;9830;41.876;23.474;2022-07-31T14:35:05;1.70;;;1.60;;
19388;SDS011;9830;41.876;23.474;2022-07-31T14:37:31;2.63;;;1.77;;
19388;SDS011;9830;41.876;23.474;2022-07-31T14:39:57;5.13;;;1.50;;
19388;SDS011;9830;41.876;23.474;2022-07-31T14:42:23;1.83;;;1.73;;
19388;SDS011;9830;41.876;23.474;2022-07-31T14:44:49;1.58;;;1.58;;
19388;SDS011;9830;41.876;23.474;2022-07-31T14:47:15;1.33;;;1.33;;
19388;SDS011;9830;41.876;23.474;2022-07-31T14:49:41;4.63;;;1.70;;
19388;SDS011;9830;41.876;23.474;2022-07-31T14:52:07;1.20;;;1.20;;
19388;SDS011;9830;41.876;23.474;2022-07-31T14:54:33;2.42;;;1.60;;
19388;SDS011;9830;41.876;23.474;2022-07-31T14:56:59;1.90;;;1.80;;
19388;SDS011;9830;41.876;23.474;2022-07-31T14:59:27;2.47;;;1.73;;
19388;SDS011;9830;41.876;23.474;2022-07-31T15:01:54;1.65;;;1.55;;
19388;SDS011;9830;41.876;23.474;2022-07-31T15:04:20;1.77;;;1.67;;
19388;SDS011;9830;41.876;23.474;2022-07-31T15:06:45;2.85;;;1.60;;
19388;SDS011;9830;41.876;23.474;2022-07-31T15:09:11;1.70;;;1.60;;